Time;durP1;ratioP1;P1;durP2;ratioP2;P2;SDS_P1;SDS_P2;PMS_P1;PMS_P2;Temp;Humidity;BMP_temperature;BMP_pressure;BME280_temperature;BME280_humidity;BME280_pressure;Samples;Min_cycle;Max_cycle;Signal;HPM_P1;HPM_P2
2022/08/29 00:00:59;;;;;;;8.65;5.10;;;;;;;;;;4975248;28;20430;-77
2022/08/29 00:03:25;;;;;;;9.38;4.25;;;;;;;;;;4990821;28;20517;-76
2022/08/29 00:05:52;;;;;;;11.05;4.45;;;;;;;;;;4988742;28;20457;-77
2022/08/29 00:08:18;;;;;;;10.02;4.18;;;16.40;99.90;;;;;;4991277;28;20426;-79
2022/08/29 00:10:44;;;;;;;10.50;4.07;;;17.70;99.90;;;;;;5008785;28;20406;-79
2022/08/29 00:13:12;;;;;;;7.70;4.15;;;16.30;99.90;;;;;;5009978;28;20473;-79
2022/08/29 00:15:38;;;;;;;9.10;4.10;;;;;;;;;;4988007;28;20484;-79
2022/08/29 00:18:06;;;;;;;8.45;4.07;;;;;;;;;;4973987;28;20887;-80
2022/08/29 00:20:34;;;;;;;8.75;4.38;;;16.30;99.90;;;;;;4975751;28;21002;-80
2022/08/29 00:23:02;;;;;;;7.57;4.32;;;16.60;99.90;;;;;;4976151;28;20474;-80
2022/08/29 00:25:28;;;;;;;10.13;4.50;;;16.50;99.90;;;;;;4988901;28;20453;-80
2022/08/29 00:27:54;;;;;;;11.48;4.47;;;16.50;99.90;;;;;;4977030;28;20510;-80
2022/08/29 00:30:21;;;;;;;8.63;4.43;;;16.40;99.90;;;;;;4970331;28;20801;-78
2022/08/29 00:32:46;;;;;;;11.57;4.53;;;16.30;99.90;;;;;;4970013;28;20421;-78
2022/08/29 00:35:15;;;;;;;10.65;4.53;;;;;;;;;;4945735;28;20434;-78
2022/08/29 00:37:41;;;;;;;9.73;4.40;;;16.40;99.90;;;;;;4970870;28;20434;-78
2022/08/29 00:40:09;;;;;;;10.37;4.60;;;;;;;;;;4971384;28;20939;-78
2022/08/29 00:42:36;;;;;;;11.80;4.70;;;;;;;;;;5008649;28;20510;-79
2022/08/29 00:45:03;;;;;;;8.85;4.35;;;;;;;;;;5008385;28;20945;-76
2022/08/29 00:47:31;;;;;;;9.23;4.23;;;;;;;;;;4976687;28;20466;-76
2022/08/29 00:49:58;;;;;;;7.90;4.28;;;;;;;;;;4972924;28;20430;-76
2022/08/29 00:52:32;;;;;;;9.90;4.53;;;16.50;99.90;;;;;;5005612;28;20481;-76
2022/08/29 00:55:00;;;;;;;10.00;4.70;;;16.40;99.90;;;;;;4989654;28;20449;-76
2022/08/29 00:57:30;;;;;;;9.05;4.38;;;16.30;99.90;;;;;;4967566;28;20447;-76
2022/08/29 00:59:56;;;;;;;10.02;3.67;;;;;;;;;;4972700;28;20415;-76
2022/08/29 01:02:22;;;;;;;11.30;4.22;;;;;;;;;;4984873;28;20529;-77
2022/08/29 01:04:48;;;;;;;10.38;3.75;;;;;;;;;;4990411;28;20435;-77
2022/08/29 01:07:14;;;;;;;8.48;3.60;;;16.30;99.90;;;;;;4975471;28;20435;-77
2022/08/29 01:09:42;;;;;;;8.77;3.53;;;;;;;;;;5006869;28;20485;-77
2022/08/29 01:12:14;;;;;;;9.45;3.90;;;;;;;;;;4975319;28;20465;-76
2022/08/29 01:14:46;;;;;;;8.77;3.42;;;16.40;99.90;;;;;;5008011;28;20552;-77
2022/08/29 01:17:17;;;;;;;8.77;3.88;;;16.50;99.90;;;;;;4962588;28;20541;-77
2022/08/29 01:19:53;;;;;;;7.93;3.50;;;16.40;99.90;;;;;;4975115;28;20442;-77
2022/08/29 01:22:22;;;;;;;10.27;4.07;;;;;;;;;;4958064;28;20433;-76
2022/08/29 01:24:51;;;;;;;8.00;4.20;;;16.30;99.90;;;;;;4988737;28;20525;-77
2022/08/29 01:27:24;;;;;;;8.57;3.93;;;16.50;99.90;;;;;;4976271;28;20462;-76
2022/08/29 01:29:50;;;;;;;9.02;3.80;;;;;;;;;;5004388;28;20438;-76
2022/08/29 01:32:16;;;;;;;8.20;3.70;;;;;;;;;;4991426;28;20493;-76
2022/08/29 01:34:42;;;;;;;10.40;3.63;;;;;;;;;;4977416;28;20443;-76
2022/08/29 01:37:12;;;;;;;9.00;3.85;;;16.50;99.90;;;;;;4961369;28;20910;-76
2022/08/29 01:39:40;;;;;;;7.82;3.58;;;16.40;99.90;;;;;;4990240;28;20432;-78
2022/08/29 01:42:13;;;;;;;6.88;3.70;;;16.30;99.90;;;;;;5000585;28;20464;-79
2022/08/29 01:44:40;;;;;;;11.90;4.00;;;16.30;99.90;;;;;;4984274;28;20775;-77
2022/08/29 01:47:07;;;;;;;6.57;3.63;;;16.40;99.90;;;;;;4970966;28;20515;-79
2022/08/29 01:49:35;;;;;;;8.23;3.90;;;16.50;99.90;;;;;;4969474;28;20760;-81
2022/08/29 01:52:02;;;;;;;9.20;3.95;;;16.20;99.90;;;;;;4975076;28;20442;-79
2022/08/29 01:54:29;;;;;;;8.57;3.70;;;16.50;99.90;;;;;;5007550;28;20464;-79
2022/08/29 01:56:55;;;;;;;8.75;4.03;;;;;;;;;;4981472;28;20531;-80
2022/08/29 01:59:27;;;;;;;8.00;3.78;;;16.60;99.90;;;;;;4966796;28;20433;-80
2022/08/29 02:02:14;;;;;;;10.15;4.18;;;16.40;99.90;;;;;;4938176;28;20424;-81
2022/08/29 02:04:39;;;;;;;8.52;3.75;;;16.30;99.90;;;;;;4990948;28;20786;-80
2022/08/29 02:07:06;;;;;;;8.57;3.80;;;;;;;;;;4969013;28;20445;-80
2022/08/29 02:09:31;;;;;;;10.00;4.03;;;16.30;99.90;;;;;;4981000;28;20422;-80
2022/08/29 02:11:57;;;;;;;9.95;3.30;;;;;;;;;;4956676;28;20428;-80
2022/08/29 02:14:23;;;;;;;11.32;3.60;;;16.30;99.90;;;;;;4956057;28;20974;-79
2022/08/29 02:16:49;;;;;;;10.37;3.80;;;16.40;99.90;;;;;;4970651;28;20502;-75
2022/08/29 02:19:17;;;;;;;7.93;3.37;;;16.40;99.90;;;;;;4980510;28;20910;-73
2022/08/29 02:21:43;;;;;;;8.45;3.55;;;;;;;;;;4987160;28;20430;-77
2022/08/29 02:24:09;;;;;;;7.13;3.55;;;;;;;;;;4972592;28;20430;-77
2022/08/29 02:26:35;;;;;;;11.13;3.95;;;16.30;99.90;;;;;;4966453;28;20806;-76
2022/08/29 02:29:01;;;;;;;7.20;3.67;;;;;;;;;;4989996;28;20421;-76
2022/08/29 02:31:28;;;;;;;10.32;3.80;;;;;;;;;;4990983;28;20410;-76
2022/08/29 02:33:55;;;;;;;7.97;3.40;;;;;;;;;;4968874;28;20521;-77
2022/08/29 02:36:21;;;;;;;8.03;3.03;;;;;;;;;;4957035;28;20431;-78
2022/08/29 02:38:48;;;;;;;9.13;3.60;;;;;;;;;;4988621;28;20485;-77
2022/08/29 02:41:14;;;;;;;7.22;3.17;;;;;;;;;;4986155;28;20426;-77
2022/08/29 02:43:40;;;;;;;11.43;3.80;;;;;;;;;;5009735;28;20437;-78
2022/08/29 02:46:06;;;;;;;8.18;3.45;;;;;;;;;;4962134;28;20423;-77
2022/08/29 02:48:33;;;;;;;8.98;3.70;;;;;;;;;;4985298;28;20488;-77
2022/08/29 02:50:59;;;;;;;9.43;3.70;;;;;;;;;;4975686;28;20506;-77
2022/08/29 02:53:26;;;;;;;8.30;3.47;;;;;;;;;;4976148;28;20462;-78
2022/08/29 02:55:52;;;;;;;10.88;3.58;;;;;;;;;;4967614;28;20536;-77
2022/08/29 02:58:19;;;;;;;8.15;3.70;;;;;;;;;;4975703;28;20466;-78
2022/08/29 03:00:45;;;;;;;8.15;3.47;;;;;;;;;;5001205;28;20430;-78
2022/08/29 03:03:11;;;;;;;8.65;3.60;;;;;;;;;;5010117;28;20942;-76
2022/08/29 03:05:37;;;;;;;7.83;3.37;;;;;;;;;;4973697;28;20834;-76
2022/08/29 03:08:06;;;;;;;7.32;3.30;;;16.20;99.90;;;;;;4975493;28;20771;-76
2022/08/29 03:10:32;;;;;;;9.63;3.65;;;;;;;;;;4969792;28;20426;-76
2022/08/29 03:12:59;;;;;;;9.40;3.30;;;;;;;;;;4989602;28;20421;-76
2022/08/29 03:15:25;;;;;;;9.57;3.55;;;;;;;;;;4953249;28;20437;-76
2022/08/29 03:17:51;;;;;;;9.05;3.47;;;;;;;;;;4970118;28;20467;-76
2022/08/29 03:20:18;;;;;;;9.40;3.15;;;;;;;;;;4973943;28;20423;-76
2022/08/29 03:22:44;;;;;;;8.60;3.40;;;;;;;;;;4990366;28;20426;-76
2022/08/29 03:25:11;;;;;;;9.13;3.40;;;;;;;;;;4970438;28;20755;-76
2022/08/29 03:27:38;;;;;;;6.97;3.50;;;16.20;99.90;;;;;;4980730;28;20425;-76
2022/08/29 03:30:05;;;;;;;8.82;3.25;;;;;;;;;;4993220;28;20894;-76
2022/08/29 03:32:31;;;;;;;9.18;3.50;;;;;;;;;;4965267;28;20927;-77
2022/08/29 03:34:57;;;;;;;12.98;3.40;;;;;;;;;;4986089;28;20429;-76
2022/08/29 03:37:25;;;;;;;7.38;3.03;;;;;;;;;;4988603;28;20426;-76
2022/08/29 03:39:52;;;;;;;8.15;3.08;;;;;;;;;;4975416;28;20406;-76
2022/08/29 03:42:18;;;;;;;7.95;3.33;;;;;;;;;;4982980;28;20942;-76
2022/08/29 03:44:44;;;;;;;8.60;3.00;;;;;;;;;;4970413;28;20794;-76
2022/08/29 03:47:10;;;;;;;9.70;3.92;;;;;;;;;;4983184;28;20424;-76
2022/08/29 03:49:36;;;;;;;8.05;3.33;;;;;;;;;;4987777;28;20496;-77
2022/08/29 03:52:03;;;;;;;7.20;3.00;;;;;;;;;;4971682;28;20936;-76
2022/08/29 03:54:29;;;;;;;7.10;3.20;;;;;;;;;;4970562;28;20558;-76
2022/08/29 03:56:55;;;;;;;11.13;3.60;;;;;;;;;;4974587;28;20528;-76
2022/08/29 03:59:21;;;;;;;6.43;3.17;;;;;;;;;;4987194;28;20517;-76
2022/08/29 04:01:48;;;;;;;10.73;3.30;;;;;;;;;;4990750;28;20407;-76
2022/08/29 04:07:05;;;;;;;7.17;2.93;;;16.50;99.90;;;;;;5004617;28;20510;-76
2022/08/29 04:09:31;;;;;;;7.88;3.00;;;16.60;99.90;;;;;;4973791;28;20429;-77
2022/08/29 04:12:02;;;;;;;8.32;3.03;;;;;;;;;;4985221;28;20426;-76
2022/08/29 04:14:29;;;;;;;8.00;3.22;;;;;;;;;;4971931;28;20994;-75
2022/08/29 04:16:55;;;;;;;8.20;3.10;;;;;;;;;;4972595;28;20412;-75
2022/08/29 04:19:21;;;;;;;6.73;2.90;;;;;;;;;;4971066;28;20459;-75
2022/08/29 04:21:47;;;;;;;9.20;3.17;;;;;;;;;;4970783;28;20951;-76
2022/08/29 04:24:14;;;;;;;10.02;3.40;;;;;;;;;;4969864;28;20431;-76
2022/08/29 04:26:41;;;;;;;9.00;3.13;;;;;;;;;;4979889;28;20431;-76
2022/08/29 04:29:08;;;;;;;11.13;3.33;;;;;;;;;;4989233;28;20422;-75
2022/08/29 04:31:35;;;;;;;10.70;3.33;;;16.40;99.90;;;;;;4985632;28;20422;-75
2022/08/29 04:34:01;;;;;;;9.15;3.25;;;16.40;99.90;;;;;;4962808;28;20489;-75
2022/08/29 04:36:28;;;;;;;10.45;2.83;;;;;;;;;;4956040;28;20991;-76
2022/08/29 04:38:54;;;;;;;8.27;3.25;;;;;;;;;;5008637;28;20406;-79
2022/08/29 04:41:20;;;;;;;8.87;3.33;;;;;;;;;;4967170;28;20567;-79
2022/08/29 04:43:46;;;;;;;10.23;3.53;;;;;;;;;;4972777;28;20428;-78
2022/08/29 04:46:15;;;;;;;9.15;3.33;;;16.30;99.90;;;;;;4973546;28;20520;-80
2022/08/29 04:48:42;;;;;;;9.45;3.28;;;;;;;;;;4988793;28;20424;-79
2022/08/29 04:51:07;;;;;;;10.70;3.50;;;16.50;99.90;;;;;;4973872;28;20491;-79
2022/08/29 04:53:33;;;;;;;9.80;3.40;;;16.40;99.90;;;;;;4971898;28;20457;-78
2022/08/29 04:56:05;;;;;;;10.07;3.50;;;16.30;99.90;;;;;;4970960;28;20476;-78
2022/08/29 04:58:36;;;;;;;9.13;3.90;;;16.10;99.90;;;;;;4956193;28;20412;-78
2022/08/29 05:01:02;;;;;;;10.43;3.67;;;16.50;99.90;;;;;;4969113;28;20522;-78
2022/08/29 05:03:29;;;;;;;8.10;3.47;;;16.10;99.90;;;;;;4968953;28;20460;-77
2022/08/29 05:06:07;;;;;;;10.05;3.78;;;16.30;99.90;;;;;;4967207;28;20490;-78
2022/08/29 05:08:35;;;;;;;8.10;3.80;;;;;;;;;;4926117;28;20418;-78
2022/08/29 05:11:02;;;;;;;9.80;4.13;;;;;;;;;;4971759;28;20520;-78
2022/08/29 05:13:28;;;;;;;8.13;3.78;;;;;;;;;;4970751;28;20436;-77
2022/08/29 05:15:54;;;;;;;9.43;3.63;;;;;;;;;;4979511;28;20437;-77
2022/08/29 05:18:20;;;;;;;9.65;4.05;;;16.10;99.90;;;;;;5006791;28;20766;-77
2022/08/29 05:20:47;;;;;;;11.17;4.30;;;16.20;99.90;;;;;;4978817;28;20428;-78
2022/08/29 05:23:15;;;;;;;8.48;4.00;;;15.90;99.90;;;;;;4960927;28;20511;-78
2022/08/29 05:25:41;;;;;;;9.90;4.00;;;16.10;99.90;;;;;;4955366;28;20426;-78
2022/08/29 05:28:10;;;;;;;9.90;3.50;;;;;;;;;;4968135;28;20473;-77
2022/08/29 05:30:39;;;;;;;8.50;3.53;;;16.20;99.90;;;;;;4998370;28;20435;-77
2022/08/29 05:33:08;;;;;;;8.75;3.72;;;16.20;99.90;;;;;;4954536;28;20427;-78
2022/08/29 05:35:35;;;;;;;9.50;3.80;;;;;;;;;;4944900;28;20960;-78
2022/08/29 05:38:01;;;;;;;9.20;4.10;;;;;;;;;;4972604;28;20489;-78
2022/08/29 05:40:27;;;;;;;9.77;3.72;;;;;;;;;;4986774;28;20520;-77
2022/08/29 05:42:54;;;;;;;7.10;3.75;;;16.30;99.90;;;;;;4995680;28;20439;-78
2022/08/29 05:45:20;;;;;;;10.10;4.20;;;;;;;;;;4969977;28;20432;-79
2022/08/29 05:47:46;;;;;;;9.75;3.88;;;;;;;;;;5005813;28;20460;-79
2022/08/29 05:50:15;;;;;;;10.48;3.80;;;16.50;99.90;;;;;;4991010;28;20413;-79
2022/08/29 05:52:41;;;;;;;12.70;4.00;;;;;;;;;;4958489;28;20435;-79
2022/08/29 05:55:08;;;;;;;8.57;3.85;;;;;;;;;;5004386;28;20481;-79
2022/08/29 05:57:33;;;;;;;13.75;3.88;;;16.40;99.90;;;;;;4971673;28;20429;-79
2022/08/29 05:59:59;;;;;;;10.13;4.03;;;16.40;99.90;;;;;;4986529;28;20571;-78
2022/08/29 06:02:25;;;;;;;8.35;3.92;;;16.30;99.90;;;;;;4961974;28;20931;-79
2022/08/29 06:04:51;;;;;;;7.43;3.60;;;;;;;;;;4969342;28;20430;-78
2022/08/29 06:07:18;;;;;;;9.27;4.03;;;;;;;;;;4993653;28;20471;-78
2022/08/29 06:09:44;;;;;;;8.77;3.90;;;16.50;99.90;;;;;;4955447;28;20764;-79
2022/08/29 06:12:12;;;;;;;8.27;3.80;;;16.40;99.90;;;;;;4990465;28;20428;-78
2022/08/29 06:14:38;;;;;;;12.32;4.25;;;16.80;99.90;;;;;;4955129;28;20498;-79
2022/08/29 06:17:05;;;;;;;9.40;3.80;;;16.60;99.90;;;;;;4961084;28;20469;-79
2022/08/29 06:19:33;;;;;;;9.82;3.70;;;;;;;;;;4980817;28;20466;-77
2022/08/29 06:22:02;;;;;;;10.80;3.97;;;;;;;;;;4973671;28;20506;-77
2022/08/29 06:24:29;;;;;;;7.72;3.72;;;16.80;99.90;;;;;;4973942;28;20447;-77
2022/08/29 06:26:55;;;;;;;8.27;3.60;;;16.90;99.90;;;;;;4991920;28;20457;-77
2022/08/29 06:29:21;;;;;;;8.87;3.47;;;17.20;99.90;;;;;;4962013;28;20534;-77
2022/08/29 06:31:46;;;;;;;10.63;4.30;;;17.10;99.90;;;;;;4994398;28;20409;-77
2022/08/29 06:34:12;;;;;;;8.82;4.03;;;17.20;99.90;;;;;;4957391;28;20844;-76
2022/08/29 06:36:38;;;;;;;8.70;3.40;;;;;;;;;;4975882;28;20422;-75
2022/08/29 06:39:07;;;;;;;10.77;3.55;;;17.40;99.90;;;;;;4973108;28;20434;-74
2022/08/29 06:41:33;;;;;;;9.07;4.05;;;17.20;99.90;;;;;;4947316;28;20443;-74
2022/08/29 06:43:59;;;;;;;8.73;3.90;;;17.20;99.90;;;;;;4958986;28;20483;-76
2022/08/29 06:46:37;;;;;;;9.00;4.00;;;17.30;99.90;;;;;;4979356;28;20436;-75
2022/08/29 06:49:06;;;;;;;11.85;4.00;;;17.30;99.90;;;;;;4954260;28;20424;-76
2022/08/29 06:51:34;;;;;;;9.20;3.90;;;17.30;99.90;;;;;;4992726;28;20483;-75
2022/08/29 06:54:03;;;;;;;9.98;3.90;;;17.40;99.90;;;;;;4956915;28;20432;-76
2022/08/29 06:56:29;;;;;;;9.60;3.67;;;;;;;;;;4989961;28;20457;-77
2022/08/29 06:58:56;;;;;;;10.73;3.60;;;;;;;;;;4989361;28;20836;-75
2022/08/29 07:01:23;;;;;;;8.30;3.90;;;17.10;99.90;;;;;;4977743;28;20422;-75
2022/08/29 07:03:51;;;;;;;9.90;3.75;;;17.10;99.90;;;;;;4948282;28;20425;-74
2022/08/29 07:06:17;;;;;;;10.00;3.60;;;;;;;;;;4971272;28;20430;-74
2022/08/29 07:08:43;;;;;;;10.80;4.13;;;17.50;99.90;;;;;;5005950;28;20947;-74
2022/08/29 07:11:10;;;;;;;8.05;3.40;;;;;;;;;;4992459;28;20426;-75
2022/08/29 07:13:36;;;;;;;6.60;2.97;;;17.50;99.90;;;;;;4963572;28;20431;-75
2022/08/29 07:16:02;;;;;;;9.60;3.35;;;17.80;99.90;;;;;;4971374;28;20430;-75
2022/08/29 07:18:28;;;;;;;8.43;3.38;;;;;;;;;;4967482;28;20451;-75
2022/08/29 07:20:54;;;;;;;7.60;3.22;;;;;;;;;;4982123;28;20447;-75
2022/08/29 07:23:20;;;;;;;11.18;3.10;;;;;;;;;;4995751;28;20422;-73
2022/08/29 07:25:47;;;;;;;8.27;2.50;;;;;;;;;;4988229;28;20460;-75
2022/08/29 07:28:12;;;;;;;10.40;2.65;;;18.10;99.90;;;;;;4981830;28;20430;-75
2022/08/29 07:30:38;;;;;;;10.95;2.85;;;18.30;99.90;;;;;;4990785;28;20398;-73
2022/08/29 07:33:04;;;;;;;8.55;2.97;;;18.70;99.90;;;;;;4961370;28;20514;-74
2022/08/29 07:35:30;;;;;;;9.38;3.35;;;;;;;;;;4971540;28;20479;-74
2022/08/29 07:38:02;;;;;;;10.35;2.90;;;19.00;99.90;;;;;;4986395;28;20481;-74
2022/08/29 07:40:28;;;;;;;7.78;2.78;;;18.90;99.90;;;;;;4976805;28;20902;-73
2022/08/29 07:42:54;;;;;;;9.32;3.58;;;;;;;;;;4972042;28;20486;-73
2022/08/29 07:45:20;;;;;;;9.07;3.20;;;19.60;99.90;;;;;;4978787;28;20486;-75
2022/08/29 07:47:46;;;;;;;12.50;3.72;;;;;;;;;;4972882;28;20404;-74
2022/08/29 07:50:12;;;;;;;10.40;3.10;;;19.40;99.90;;;;;;4971801;28;20427;-74
2022/08/29 07:52:39;;;;;;;11.18;3.58;;;;;;;;;;4963210;28;20481;-74
2022/08/29 07:55:05;;;;;;;8.98;3.30;;;19.70;99.90;;;;;;4970777;28;21028;-74
2022/08/29 07:57:32;;;;;;;8.60;3.03;;;;;;;;;;4988709;28;20437;-74
2022/08/29 07:59:59;;;;;;;7.53;3.38;;;;;;;;;;4974933;28;20549;-74
2022/08/29 08:02:26;;;;;;;9.80;3.22;;;19.70;99.90;;;;;;4998789;28;20996;-74
2022/08/29 08:04:52;;;;;;;10.75;3.00;;;19.20;99.90;;;;;;4980675;28;20430;-74
2022/08/29 08:07:18;;;;;;;9.70;3.17;;;;;;;;;;4990515;28;20457;-74
2022/08/29 08:09:44;;;;;;;11.52;3.20;;;19.30;99.90;;;;;;4989793;28;20505;-74
2022/08/29 08:12:09;;;;;;;12.20;3.50;;;19.20;99.90;;;;;;4976921;28;20506;-74
2022/08/29 08:14:35;;;;;;;11.73;3.20;;;19.10;99.90;;;;;;4956965;28;20462;-74
2022/08/29 08:17:01;;;;;;;9.60;3.73;;;;;;;;;;4941203;28;20927;-74
2022/08/29 08:19:27;;;;;;;14.05;3.80;;;19.00;99.90;;;;;;4965219;28;20436;-76
2022/08/29 08:21:53;;;;;;;10.57;3.50;;;19.10;99.90;;;;;;4952268;28;21060;-74
2022/08/29 08:24:19;;;;;;;9.97;3.20;;;;;;;;;;4973539;28;20438;-73
2022/08/29 08:26:49;;;;;;;12.73;3.10;;;19.40;99.90;;;;;;4964917;28;20442;-74
2022/08/29 08:29:15;;;;;;;8.23;2.88;;;19.70;99.90;;;;;;4969572;28;20427;-74
2022/08/29 08:31:46;;;;;;;7.17;2.60;;;19.70;99.90;;;;;;4973823;28;20469;-74
2022/08/29 08:34:14;;;;;;;9.90;3.20;;;19.60;99.90;;;;;;4955013;28;20428;-75
2022/08/29 08:36:41;;;;;;;9.63;2.92;;;19.70;99.90;;;;;;4967208;28;20462;-75
2022/08/29 08:39:07;;;;;;;11.13;3.33;;;19.60;99.90;;;;;;4987792;28;20448;-74
2022/08/29 08:41:44;;;;;;;8.20;2.70;;;19.70;99.90;;;;;;4987641;28;20430;-75
2022/08/29 08:44:25;;;;;;;10.80;2.95;;;20.00;99.90;;;;;;4955097;28;20440;-75
2022/08/29 08:46:57;;;;;;;10.95;2.78;;;19.70;99.90;;;;;;4954193;28;20428;-75
2022/08/29 08:49:43;;;;;;;12.70;3.97;;;19.80;99.90;;;;;;5001171;28;20422;-75
2022/08/29 08:52:25;;;;;;;7.07;2.93;;;20.10;99.90;;;;;;4947916;28;20519;-76
2022/08/29 08:55:00;;;;;;;8.80;3.20;;;20.50;99.90;;;;;;4988680;28;20442;-75
2022/08/29 08:57:40;;;;;;;8.45;2.90;;;20.10;99.90;;;;;;4966558;28;20443;-75
2022/08/29 09:00:09;;;;;;;10.85;3.00;;;20.20;99.90;;;;;;4990770;28;20428;-75
2022/08/29 09:02:47;;;;;;;9.70;3.42;;;20.40;99.90;;;;;;4958865;28;20432;-75
2022/08/29 09:05:39;;;;;;;6.97;3.10;;;20.50;99.90;;;;;;4968277;28;20429;-76
2022/08/29 09:08:24;;;;;;;8.80;3.22;;;20.50;99.90;;;;;;4959811;28;20402;-75
2022/08/29 09:10:55;;;;;;;7.63;2.80;;;20.50;99.90;;;;;;4963622;28;20524;-77
2022/08/29 09:13:30;;;;;;;10.13;3.10;;;20.70;99.90;;;;;;4989626;28;20868;-76
2022/08/29 09:15:59;;;;;;;9.38;3.13;;;20.80;99.90;;;;;;4952354;28;20428;-78
2022/08/29 09:18:26;;;;;;;11.80;3.20;;;;;;;;;;4986012;28;20711;-77
2022/08/29 09:20:53;;;;;;;8.80;3.00;;;20.80;99.90;;;;;;4980381;28;20462;-80
2022/08/29 09:23:33;;;;;;;9.65;3.10;;;20.90;99.90;;;;;;4970101;28;20515;-78
2022/08/29 09:25:59;;;;;;;11.98;3.10;;;21.10;99.90;;;;;;4959959;28;20926;-77
2022/08/29 09:28:25;;;;;;;8.27;2.80;;;21.10;99.90;;;;;;4983501;28;20437;-77
2022/08/29 09:31:34;;;;;;;10.25;3.63;;;21.10;99.90;;;;;;4952077;28;20426;-79
2022/08/29 09:34:10;;;;;;;9.63;3.00;;;21.20;99.90;;;;;;4947344;28;20428;-78
2022/08/29 09:36:50;;;;;;;9.38;3.05;;;21.20;99.90;;;;;;4985924;28;20432;-80
2022/08/29 09:39:30;;;;;;;9.18;3.58;;;21.20;99.90;;;;;;4956417;28;20431;-82
2022/08/29 09:42:18;;;;;;;10.48;3.25;;;21.30;99.90;;;;;;4964067;28;20475;-77
2022/08/29 09:44:53;;;;;;;8.20;3.10;;;21.40;99.90;;;;;;4963554;28;20540;-80
2022/08/29 09:47:23;;;;;;;7.10;2.65;;;21.60;99.90;;;;;;4986901;28;20454;-82
2022/08/29 09:50:10;;;;;;;6.82;2.80;;;21.70;99.90;;;;;;4989201;28;20421;-78
2022/08/29 09:52:39;;;;;;;9.98;3.10;;;22.20;99.90;;;;;;4955161;28;20435;-81
2022/08/29 09:55:33;;;;;;;13.77;3.25;;;21.90;99.90;;;;;;4967357;28;20434;-80
2022/08/29 09:58:19;;;;;;;7.50;2.90;;;22.40;99.90;;;;;;4977491;28;20973;-80
2022/08/29 10:01:09;;;;;;;7.68;3.13;;;22.20;99.90;;;;;;4966208;28;20437;-81
2022/08/29 10:03:39;;;;;;;11.40;3.60;;;21.80;99.90;;;;;;4959393;28;20509;-80
2022/08/29 10:06:12;;;;;;;9.60;4.03;;;22.10;99.90;;;;;;4992359;28;20491;-79
2022/08/29 10:08:40;;;;;;;12.25;3.33;;;22.10;99.90;;;;;;4964410;28;20849;-79
2022/08/29 10:11:20;;;;;;;14.45;4.10;;;21.90;99.90;;;;;;4953499;28;20507;-80
2022/08/29 10:14:02;;;;;;;11.15;4.13;;;21.90;99.90;;;;;;4971293;28;20433;-84
2022/08/29 10:16:47;;;;;;;12.52;3.50;;;21.80;99.90;;;;;;4991359;28;20434;-84
2022/08/29 10:19:26;;;;;;;11.02;3.70;;;21.70;99.90;;;;;;4988720;28;20432;-80
2022/08/29 10:22:06;;;;;;;12.50;3.95;;;21.50;99.90;;;;;;4959139;28;20442;-81
2022/08/29 10:24:57;;;;;;;13.40;3.60;;;22.00;99.90;;;;;;4968378;28;20430;-81
2022/08/29 10:27:42;;;;;;;12.57;3.50;;;22.00;99.90;;;;;;4978887;28;20458;-80
2022/08/29 10:30:15;;;;;;;10.45;3.40;;;21.70;99.90;;;;;;4972032;28;20426;-79
2022/08/29 10:32:51;;;;;;;10.85;3.83;;;21.40;99.90;;;;;;4989863;28;20451;-79
2022/08/29 10:35:32;;;;;;;9.95;3.80;;;21.80;99.90;;;;;;4966584;28;20456;-79
2022/08/29 10:38:08;;;;;;;13.40;3.90;;;22.00;99.90;;;;;;4952257;28;20428;-79
2022/08/29 10:40:51;;;;;;;13.63;4.28;;;21.80;99.90;;;;;;4961929;28;20433;-77
2022/08/29 10:43:47;;;;;;;9.20;3.63;;;21.80;99.90;;;;;;4960362;28;20506;-78
2022/08/29 10:46:43;;;;;;;9.93;4.05;;;22.10;99.90;;;;;;4969097;28;20501;-80
2022/08/29 10:49:35;;;;;;;9.57;4.30;;;22.00;99.90;;;;;;4990931;28;20763;-83
2022/08/29 10:52:14;;;;;;;12.60;3.88;;;22.10;99.90;;;;;;4982430;28;20425;-82
2022/08/29 10:55:05;;;;;;;7.80;3.50;;;22.10;99.90;;;;;;4978395;28;20433;-82
2022/08/29 10:58:01;;;;;;;10.55;3.65;;;22.10;99.90;;;;;;4957934;28;20434;-81
2022/08/29 11:00:52;;;;;;;9.33;3.43;;;22.30;99.90;;;;;;4963016;28;20462;-80
2022/08/29 11:03:42;;;;;;;9.23;3.63;;;22.80;99.90;;;;;;4995575;28;20437;-81
2022/08/29 11:06:25;;;;;;;10.88;3.85;;;22.50;99.90;;;;;;4963193;28;20434;-80
2022/08/29 11:09:07;;;;;;;10.82;3.90;;;22.60;99.90;;;;;;4994916;28;20422;-81
2022/08/29 11:11:36;;;;;;;13.73;4.40;;;22.70;99.90;;;;;;4970120;28;20573;-79
2022/08/29 11:14:21;;;;;;;9.55;4.30;;;22.60;99.90;;;;;;4976949;28;20449;-80
2022/08/29 11:16:49;;;;;;;11.17;3.80;;;22.50;99.90;;;;;;4977346;28;20418;-78
2022/08/29 11:19:30;;;;;;;12.60;3.67;;;22.60;99.90;;;;;;4965188;28;20428;-77
2022/08/29 11:22:29;;;;;;;11.03;4.30;;;22.60;99.90;;;;;;4976742;28;20438;-78
2022/08/29 11:25:05;;;;;;;13.95;4.15;;;22.60;99.90;;;;;;4972991;28;20443;-78
2022/08/29 11:27:35;;;;;;;11.02;4.07;;;22.50;99.90;;;;;;4967193;28;20458;-79
2022/08/29 11:30:04;;;;;;;11.38;4.10;;;22.20;99.90;;;;;;4981349;28;20521;-78
2022/08/29 11:32:52;;;;;;;10.27;4.00;;;22.10;99.90;;;;;;4978664;28;20433;-78
2022/08/29 11:35:23;;;;;;;11.00;3.60;;;21.70;99.90;;;;;;4975741;28;20424;-79
2022/08/29 11:38:34;;;;;;;11.75;3.90;;;21.90;99.90;;;;;;4975218;28;20849;-79
2022/08/29 11:41:13;;;;;;;8.68;3.50;;;;;;;;;;4968201;28;20506;-79
2022/08/29 11:43:46;;;;;;;11.00;3.90;;;22.70;99.90;;;;;;4956858;28;20986;-78
2022/08/29 11:46:13;;;;;;;12.93;4.22;;;22.40;99.90;;;;;;4967902;28;20430;-78
2022/08/29 11:48:44;;;;;;;11.20;3.88;;;22.30;99.90;;;;;;4992031;28;20461;-79
2022/08/29 11:51:33;;;;;;;10.25;3.88;;;22.30;99.90;;;;;;4983995;28;20539;-79
2022/08/29 11:54:24;;;;;;;9.98;3.50;;;22.70;99.90;;;;;;4972471;28;20510;-79
2022/08/29 11:56:59;;;;;;;10.93;3.63;;;22.20;99.90;;;;;;4970289;28;20495;-80
2022/08/29 11:59:43;;;;;;;10.00;3.72;;;22.50;99.90;;;;;;4987956;28;20439;-79
2022/08/29 12:02:30;;;;;;;11.68;3.90;;;22.60;99.90;;;;;;4984122;28;20526;-80
2022/08/29 12:05:26;;;;;;;11.93;4.00;;;23.10;99.90;;;;;;4957861;28;20430;-79
2022/08/29 12:08:03;;;;;;;12.00;3.95;;;23.00;99.90;;;;;;4944790;28;21129;-79
2022/08/29 12:10:33;;;;;;;10.25;4.10;;;23.10;99.90;;;;;;4958990;28;20430;-79
2022/08/29 12:13:04;;;;;;;8.13;3.87;;;22.60;99.90;;;;;;4963045;28;20939;-79
2022/08/29 12:15:30;;;;;;;11.88;3.65;;;23.10;99.90;;;;;;4989142;28;20413;-79
2022/08/29 12:18:17;;;;;;;9.95;3.30;;;23.10;99.90;;;;;;4966812;28;20417;-79
2022/08/29 12:20:54;;;;;;;11.15;3.45;;;23.10;99.90;;;;;;4955023;28;20428;-80
2022/08/29 12:23:30;;;;;;;9.75;3.55;;;23.00;99.90;;;;;;4954774;28;20436;-79
2022/08/29 12:26:04;;;;;;;12.07;4.00;;;23.30;99.90;;;;;;5008189;28;20429;-79
2022/08/29 12:28:47;;;;;;;12.00;3.75;;;23.10;99.90;;;;;;4966714;28;20432;-77
2022/08/29 12:31:38;;;;;;;9.55;3.45;;;23.10;99.90;;;;;;4964267;28;20561;-79
2022/08/29 12:34:26;;;;;;;11.15;3.92;;;22.80;99.90;;;;;;4961935;28;20428;-78
2022/08/29 12:37:00;;;;;;;10.90;3.60;;;23.00;99.90;;;;;;4989949;28;20479;-81
2022/08/29 12:39:52;;;;;;;9.70;3.55;;;22.70;99.90;;;;;;4991177;28;20416;-80
2022/08/29 12:42:32;;;;;;;10.05;3.72;;;23.10;99.90;;;;;;4953304;28;20916;-80
2022/08/29 12:45:22;;;;;;;9.07;3.70;;;23.10;99.90;;;;;;4973381;28;20959;-79
2022/08/29 12:47:55;;;;;;;8.93;3.70;;;22.90;99.90;;;;;;4973205;28;20962;-80
2022/08/29 12:50:33;;;;;;;10.02;3.60;;;23.00;99.90;;;;;;4972888;28;20408;-80
2022/08/29 12:53:03;;;;;;;9.90;3.53;;;23.00;99.90;;;;;;4972998;28;20426;-80
2022/08/29 12:55:39;;;;;;;11.83;3.90;;;23.00;99.90;;;;;;4973704;28;21051;-79
2022/08/29 12:58:06;;;;;;;11.45;3.33;;;23.10;99.90;;;;;;4973511;28;20752;-80
2022/08/29 13:00:33;;;;;;;8.80;3.70;;;23.10;99.90;;;;;;4956529;28;20408;-80
2022/08/29 13:03:06;;;;;;;11.73;3.47;;;23.30;99.90;;;;;;4957239;28;20408;-81
2022/08/29 13:05:34;;;;;;;7.32;3.10;;;23.40;99.90;;;;;;4972959;28;20788;-80
2022/08/29 13:08:07;;;;;;;10.00;3.63;;;23.50;99.90;;;;;;4957847;28;20432;-80
2022/08/29 13:10:35;;;;;;;8.75;3.05;;;23.50;99.90;;;;;;4962593;28;20421;-80
2022/08/29 13:13:13;;;;;;;9.90;3.33;;;23.80;99.90;;;;;;4969271;28;20432;-80
2022/08/29 13:15:39;;;;;;;9.93;3.60;;;23.70;99.90;;;;;;4972909;28;20411;-81
2022/08/29 13:18:06;;;;;;;9.30;3.50;;;24.10;99.90;;;;;;4957180;28;20416;-80
2022/08/29 13:20:41;;;;;;;9.80;3.60;;;24.20;99.90;;;;;;4941686;28;20733;-80
2022/08/29 13:23:28;;;;;;;8.73;3.33;;;24.10;99.90;;;;;;4968080;28;20413;-80
2022/08/29 13:25:58;;;;;;;11.83;3.73;;;24.10;99.90;;;;;;4970119;28;20438;-79
2022/08/29 13:28:29;;;;;;;10.70;3.33;;;23.20;99.90;;;;;;4988719;28;20483;-80
2022/08/29 13:31:09;;;;;;;8.68;3.50;;;23.80;99.90;;;;;;4956677;28;20408;-79
2022/08/29 13:33:36;;;;;;;10.52;3.25;;;23.60;99.90;;;;;;4969546;28;21042;-81
2022/08/29 13:36:39;;;;;;;9.55;3.20;;;23.50;99.90;;;;;;4954411;29;20448;-81
2022/08/29 13:41:50;;;;;;;6.80;3.20;;;23.00;99.90;;;;;;4970339;28;20922;-80
2022/08/29 13:44:18;;;;;;;10.00;3.40;;;23.00;99.90;;;;;;4973126;28;20430;-76